Terminal Aerodrome Forecast
Issued by NWS

Current Version | Previous Version | Text Only | Print | Product List | Glossary Off
Versions: 1 2 3 4 5 6 7 8 9 10 11 12 13 14 15 16

000
FTUS41 KRNK 081140
TAFLWB
TAF
KLWB 081140Z 0812/0912 29003KT P6SM OVC080
     FM081400 29008KT P6SM SCT090 BKN130
     FM081700 29011G22KT P6SM SCT250
     FM090400 29008G16KT P6SM -SHSN BKN020 BKN050=

USA.gov is the U.S. government's official web portal to all federal, state and local government web resources and services.